Airfield :
LOGIN :

Register | Disclaimer

   EN    FR    IT 

 










Legend :    VFR   Marginal VFR   IFR   Intensive IFR   Very Intensive IFR
Visi :
Ceiling :
>= 8 km
>= 3000ft
5 to 8 km
1000 to 3000 ft
1500m to 5 km
500 to 1000 ft
800 to 1500m
200 to 500 ft
< 800m
< 200 ft
Symbols :   Thunderstorms  Fog  Heavy snow  Heavy precipitations  Wind > 20 kt
SIGMETs :     Misc.  Thunderstorms  Icing  Turbulence  Mountain Waves  Volcanic Ashes







- Airport Elevation : 423 ft
- IATA code : PIS
- Download approach charts


LFBI - Poitiers

CURRENT METAR :
  • 222000Z AUTO 24009KT CAVOK 17/10 Q1016 NOSIG

EXPIRED METARs :
  • 221930Z AUTO 24010KT 9999 FEW036 18/11 Q1016 NOSIG
  • 221900Z AUTO 24011KT 9999 FEW040 BKN064 19/11 Q1015 NOSIG
  • 221830Z AUTO 24013KT 9999 FEW041 BKN049 BKN062 20/12 Q1015 NOSIG
  • 221800Z AUTO 23013KT CAVOK 19/11 Q1014 NOSIG
  • 221730Z AUTO 23015KT CAVOK 21/11 Q1014 NOSIG

TAF TAF LFBI
Valid from the 22 at 18:00 until the 23 at 18:00 UTC


221700Z 2218/2318 24016KT CAVOK
BECMG 2220/2222 20005KT
PROB40 2303/2307 BKN005
BECMG 2310/2312 24012KT
BECMG 2315/2317 BKN012 BKN020
No reported NOTAMs for that airfield.



MET'MAP, your aeronautical weather chart ! - Copyright ORBIFLY December 2007 - Disclaimer

ORBIFLY MET'MAP TEAM :

Programming & Development : Alexandra Zaïnal
Concept & Development : Baudouin d'Aumeries
Co-Development & Prog : Marc-Olivier Méhu
Technical & hardware support : Manuel Goepfert

Contact : metmap@orbifly.com




SOURCES & CREDITS :

   NOAA